createdAt,value
2022-11-08T00:00:05.881Z,14.82
2022-11-08T00:02:51.452Z,13.65
2022-11-08T00:05:55.438Z,15.13
2022-11-08T00:08:59.729Z,15.57
2022-11-08T00:12:03.539Z,19.25
2022-11-08T00:14:49.396Z,15.73
2022-11-08T00:17:34.970Z,10.40
2022-11-08T00:20:20.336Z,12.60
2022-11-08T00:23:07.557Z,16.40
2022-11-08T00:25:55.970Z,13.60
2022-11-08T00:28:41.378Z,14.85
2022-11-08T00:31:26.853Z,9.45
2022-11-08T00:34:12.492Z,14.70
2022-11-08T00:36:57.800Z,14.02
2022-11-08T00:39:43.360Z,19.10
2022-11-08T00:42:28.810Z,12.63
2022-11-08T00:45:14.476Z,16.65
2022-11-08T00:47:59.891Z,16.40
2022-11-08T00:50:45.303Z,17.05
2022-11-08T00:53:31.121Z,13.10
2022-11-08T00:56:16.395Z,12.52
2022-11-08T00:59:02.060Z,14.77
2022-11-08T01:01:48.343Z,17.88
2022-11-08T01:04:34.106Z,20.08
2022-11-08T01:07:19.609Z,14.85
2022-11-08T01:10:05.802Z,21.80
2022-11-08T01:12:51.098Z,13.65
2022-11-08T01:15:38.832Z,8.68
2022-11-08T01:18:24.526Z,17.27
2022-11-08T01:21:11.123Z,14.55
2022-11-08T01:23:56.545Z,25.27
2022-11-08T01:26:41.873Z,12.98
2022-11-08T01:29:27.521Z,13.98
2022-11-08T01:32:12.930Z,10.43
2022-11-08T01:34:58.634Z,11.85
2022-11-08T01:37:44.121Z,21.33
2022-11-08T01:40:31.005Z,23.70
2022-11-08T01:43:25.439Z,15.05
2022-11-08T01:46:20.192Z,14.98
2022-11-08T01:49:12.435Z,14.27
2022-11-08T01:52:18.920Z,11.02
2022-11-08T01:55:23.051Z,11.05
2022-11-08T01:58:15.016Z,14.80
2022-11-08T02:01:02.297Z,19.73
2022-11-08T02:03:47.852Z,19.08
2022-11-08T02:06:37.976Z,15.02
2022-11-08T02:09:23.415Z,11.55
2022-11-08T02:12:10.621Z,16.52
2022-11-08T02:14:56.031Z,15.48
2022-11-08T02:17:41.348Z,14.15
2022-11-08T02:20:27.265Z,11.82
2022-11-08T02:23:40.182Z,18.40
2022-11-08T02:26:31.227Z,15.93
2022-11-08T02:29:34.328Z,12.32
2022-11-08T02:32:19.827Z,15.45
2022-11-08T02:35:11.251Z,11.10
2022-11-08T02:37:56.532Z,12.23
2022-11-08T02:40:51.206Z,11.82
2022-11-08T02:43:36.322Z,14.45
2022-11-08T02:46:21.942Z,10.88
2022-11-08T02:49:07.187Z,11.73
2022-11-08T02:51:53.769Z,13.40
2022-11-08T02:54:39.205Z,11.65
2022-11-08T02:57:24.318Z,11.85
2022-11-08T03:00:10.752Z,9.13
2022-11-08T03:02:57.476Z,12.32
2022-11-08T03:05:43.386Z,12.32
2022-11-08T03:08:28.869Z,8.98
2022-11-08T03:11:14.408Z,9.45
2022-11-08T03:13:59.865Z,8.75
2022-11-08T03:16:45.288Z,12.20
2022-11-08T03:19:30.718Z,13.65
2022-11-08T03:22:16.148Z,10.68
2022-11-08T03:25:01.684Z,17.48
2022-11-08T03:27:47.139Z,11.27
2022-11-08T03:30:33.586Z,9.23
2022-11-08T03:33:20.836Z,9.13
2022-11-08T03:36:06.461Z,7.53
2022-11-08T03:38:52.121Z,12.63
2022-11-08T03:41:37.639Z,14.73
2022-11-08T03:44:23.180Z,13.38
2022-11-08T03:47:09.690Z,14.32
2022-11-08T03:49:54.832Z,14.90
2022-11-08T03:52:45.248Z,13.85
2022-11-08T03:55:30.814Z,10.98
2022-11-08T03:58:16.484Z,7.55
2022-11-08T04:01:06.580Z,18.42
2022-11-08T04:03:52.173Z,16.02
2022-11-08T04:06:37.515Z,11.45
2022-11-08T04:09:23.023Z,11.65
2022-11-08T04:12:27.760Z,12.40
2022-11-08T04:15:15.677Z,13.57
2022-11-08T04:18:19.677Z,10.98
2022-11-08T04:21:21.608Z,10.48
2022-11-08T04:24:07.379Z,12.85
2022-11-08T04:26:52.975Z,13.32
2022-11-08T04:29:38.597Z,10.75
2022-11-08T04:32:23.956Z,12.32
2022-11-08T04:35:09.701Z,7.65
2022-11-08T04:38:02.269Z,10.52
2022-11-08T04:40:47.945Z,9.77
2022-11-08T04:43:34.176Z,9.50
2022-11-08T04:46:22.364Z,14.02
2022-11-08T04:49:08.668Z,11.55
2022-11-08T04:51:53.860Z,9.07
2022-11-08T04:54:39.443Z,10.95
2022-11-08T04:57:24.874Z,14.20
2022-11-08T05:00:11.030Z,14.65
2022-11-08T05:02:56.511Z,8.02
2022-11-08T05:05:41.954Z,16.05
2022-11-08T05:08:27.640Z,16.77
2022-11-08T05:11:16.122Z,12.52
2022-11-08T05:14:01.520Z,10.57
2022-11-08T05:16:47.112Z,8.75
2022-11-08T05:19:51.144Z,14.52
2022-11-08T05:22:54.892Z,10.75
2022-11-08T05:25:41.011Z,10.38
2022-11-08T05:28:26.121Z,11.18
2022-11-08T05:31:11.911Z,8.13
2022-11-08T05:33:57.160Z,20.23
2022-11-08T05:36:42.706Z,7.72
2022-11-08T05:39:31.895Z,8.52
2022-11-08T05:42:17.823Z,7.65
2022-11-08T05:45:09.182Z,4.78
2022-11-08T05:47:55.916Z,7.47
2022-11-08T05:50:40.957Z,15.77
2022-11-08T05:53:26.421Z,12.40
2022-11-08T05:56:11.973Z,13.13
2022-11-08T05:58:57.451Z,9.77
2022-11-08T06:01:42.860Z,13.10
2022-11-08T06:04:28.325Z,6.35
2022-11-08T06:07:13.715Z,14.88
2022-11-08T06:09:59.232Z,13.05
2022-11-08T06:12:44.753Z,8.45
2022-11-08T06:15:30.256Z,7.30
2022-11-08T06:18:15.844Z,9.35
2022-11-08T06:21:02.441Z,12.10
2022-11-08T06:23:48.069Z,6.22
2022-11-08T06:26:33.510Z,9.88
2022-11-08T06:29:19.024Z,11.70
2022-11-08T06:32:04.471Z,11.57
2022-11-08T06:34:49.963Z,8.85
2022-11-08T06:37:35.379Z,9.45
2022-11-08T06:40:20.857Z,10.45
2022-11-08T06:43:06.579Z,17.75
2022-11-08T06:45:52.124Z,10.75
2022-11-08T06:48:37.486Z,9.20
2022-11-08T06:51:23.111Z,8.38
2022-11-08T06:54:11.153Z,14.02
2022-11-08T06:57:00.539Z,8.77
2022-11-08T06:59:45.864Z,10.75
2022-11-08T07:02:31.449Z,12.50
2022-11-08T07:05:17.068Z,10.80
2022-11-08T07:08:02.795Z,9.63
2022-11-08T07:10:48.298Z,15.43
2022-11-08T07:13:33.892Z,9.95
2022-11-08T07:16:19.543Z,10.93
2022-11-08T07:19:05.190Z,10.43
2022-11-08T07:21:51.031Z,21.17
2022-11-08T07:24:36.587Z,15.82
2022-11-08T07:27:22.101Z,17.60
2022-11-08T07:30:07.986Z,18.05
2022-11-08T07:32:54.521Z,20.13
2022-11-08T07:35:40.028Z,19.88
2022-11-08T07:38:26.399Z,16.90
2022-11-08T07:41:11.679Z,23.15
2022-11-08T07:43:56.814Z,12.60
2022-11-08T07:46:42.333Z,17.75
2022-11-08T07:49:27.856Z,16.50
2022-11-08T07:52:14.049Z,19.20
2022-11-08T07:54:59.410Z,22.73
2022-11-08T07:57:44.914Z,19.23
2022-11-08T08:00:31.769Z,18.15
2022-11-08T08:03:18.331Z,18.48
2022-11-08T08:06:04.273Z,16.88
2022-11-08T08:08:49.569Z,24.10
2022-11-08T08:11:34.893Z,18.92
2022-11-08T08:14:20.545Z,21.27
2022-11-08T08:17:05.959Z,19.63
2022-11-08T08:19:51.565Z,17.48
2022-11-08T08:22:37.121Z,19.95
2022-11-08T08:25:22.295Z,16.95
2022-11-08T08:28:07.742Z,22.35
2022-11-08T08:30:53.054Z,17.70
2022-11-08T08:33:38.901Z,14.25
2022-11-08T08:36:24.168Z,26.38
2022-11-08T08:39:10.228Z,17.17
2022-11-08T08:41:55.615Z,17.67
2022-11-08T08:44:41.234Z,16.05
2022-11-08T08:47:27.669Z,19.27
2022-11-08T08:50:13.121Z,19.63
2022-11-08T08:52:59.846Z,20.42
2022-11-08T08:55:45.489Z,20.40
2022-11-08T08:58:30.876Z,24.40
2022-11-08T09:04:22.272Z,12.40
2022-11-08T09:07:07.956Z,19.83
2022-11-08T09:09:53.781Z,15.93
2022-11-08T09:12:39.255Z,16.92
2022-11-08T09:15:24.977Z,16.50
2022-11-08T09:18:10.813Z,16.52
2022-11-08T09:20:58.046Z,12.25
2022-11-08T09:23:43.630Z,17.80
2022-11-08T09:26:29.088Z,20.20
2022-11-08T09:29:14.613Z,16.23
2022-11-08T09:32:01.292Z,17.38
2022-11-08T09:34:46.372Z,15.88
2022-11-08T09:37:31.857Z,18.67
2022-11-08T09:40:20.791Z,23.05
2022-11-08T09:43:24.369Z,17.73
2022-11-08T09:46:11.667Z,16.33
2022-11-08T09:49:00.493Z,17.40
2022-11-08T09:51:47.061Z,14.38
2022-11-08T09:54:43.952Z,25.02
2022-11-08T09:57:41.221Z,15.63
2022-11-08T10:00:26.848Z,18.60
2022-11-08T10:03:15.170Z,10.75
2022-11-08T10:06:19.197Z,21.48
2022-11-08T10:12:34.054Z,17.70
2022-11-08T10:15:40.681Z,11.15
2022-11-08T10:18:51.092Z,15.27
2022-11-08T10:21:49.682Z,17.48
2022-11-08T10:24:46.208Z,14.40
2022-11-08T10:27:41.778Z,11.30
2022-11-08T10:30:34.320Z,22.33
2022-11-08T10:33:22.177Z,10.70
2022-11-08T10:36:29.493Z,14.35
2022-11-08T10:39:24.111Z,11.98
2022-11-08T10:42:28.314Z,10.85
2022-11-08T10:45:14.014Z,15.95
2022-11-08T10:47:59.386Z,16.25
2022-11-08T10:50:53.444Z,17.10
2022-11-08T10:53:44.256Z,19.15
2022-11-08T10:56:31.190Z,16.08
2022-11-08T10:59:31.044Z,15.18
2022-11-08T11:02:23.555Z,16.05
2022-11-08T11:05:18.252Z,15.57
2022-11-08T11:08:09.501Z,24.48
2022-11-08T11:11:15.698Z,16.45
2022-11-08T11:14:22.720Z,15.85
2022-11-08T11:17:17.112Z,17.05
2022-11-08T11:20:02.668Z,21.48
2022-11-08T11:22:48.497Z,14.65
2022-11-08T11:25:34.099Z,20.20
2022-11-08T11:28:19.997Z,20.45
2022-11-08T11:31:17.018Z,15.98
2022-11-08T11:34:24.472Z,14.82
2022-11-08T11:37:09.581Z,16.85
2022-11-08T11:40:08.364Z,16.27
2022-11-08T11:43:05.164Z,21.35
2022-11-08T11:46:00.424Z,17.92
2022-11-08T11:49:04.374Z,20.70
2022-11-08T11:51:53.958Z,18.65
2022-11-08T11:54:39.497Z,15.30
2022-11-08T11:57:41.283Z,12.52
2022-11-08T12:00:27.069Z,16.08
2022-11-08T12:03:37.658Z,16.35
2022-11-08T12:06:36.191Z,19.08
2022-11-08T12:09:42.790Z,16.92
2022-11-08T12:12:46.942Z,17.23
2022-11-08T12:15:44.109Z,21.02
2022-11-08T12:18:54.272Z,14.75
2022-11-08T12:22:22.556Z,23.95
2022-11-08T12:25:20.065Z,20.00
2022-11-08T12:28:32.616Z,15.77
2022-11-08T12:31:31.545Z,18.77
2022-11-08T12:34:29.873Z,15.15
2022-11-08T12:37:37.073Z,16.88
2022-11-08T12:40:31.540Z,22.58
2022-11-08T12:43:23.089Z,13.90
2022-11-08T12:46:10.761Z,19.67
2022-11-08T12:49:29.906Z,18.10
2022-11-08T12:52:24.655Z,20.58
2022-11-08T12:55:43.992Z,23.17
2022-11-08T12:58:44.328Z,20.95
2022-11-08T13:01:30.690Z,19.85
2022-11-08T13:04:36.665Z,24.73
2022-11-08T13:07:30.475Z,22.65
2022-11-08T13:10:23.031Z,12.07
2022-11-08T13:13:46.038Z,22.60
2022-11-08T13:16:39.227Z,13.35
2022-11-08T13:19:47.362Z,17.30
2022-11-08T13:22:32.532Z,18.63
2022-11-08T13:25:18.185Z,20.23
2022-11-08T13:28:40.447Z,26.52
2022-11-08T13:31:58.641Z,24.73
2022-11-08T13:35:12.998Z,22.20
2022-11-08T13:38:29.954Z,21.55
2022-11-08T13:41:22.539Z,22.83
2022-11-08T13:44:46.879Z,19.50
2022-11-08T13:50:28.119Z,20.98
2022-11-08T13:53:19.426Z,16.98
2022-11-08T13:56:05.015Z,23.38
2022-11-08T13:58:50.368Z,19.50
2022-11-08T14:01:45.050Z,11.30
2022-11-08T14:04:40.467Z,5.47
2022-11-08T14:07:44.326Z,9.77
2022-11-08T14:10:46.144Z,12.15
2022-11-08T14:13:52.103Z,7.00
2022-11-08T14:17:03.212Z,10.05
2022-11-08T14:19:52.184Z,11.00
2022-11-08T14:22:37.641Z,13.90
2022-11-08T14:25:29.487Z,12.07
2022-11-08T14:28:42.815Z,12.98
2022-11-08T14:31:33.384Z,8.32
2022-11-08T14:34:36.623Z,12.48
2022-11-08T14:37:27.407Z,12.02
2022-11-08T14:40:18.203Z,15.95
2022-11-08T14:43:03.801Z,11.50
2022-11-08T14:45:50.306Z,14.18
2022-11-08T14:48:35.860Z,14.60
2022-11-08T14:51:21.536Z,10.75
2022-11-08T14:54:15.876Z,7.78
2022-11-08T14:57:01.317Z,9.57
2022-11-08T14:59:46.748Z,12.57
2022-11-08T15:02:33.184Z,15.05
2022-11-08T15:05:41.005Z,10.27
2022-11-08T15:08:32.992Z,9.27
2022-11-08T15:11:33.037Z,12.90
2022-11-08T15:14:22.126Z,13.82
2022-11-08T15:17:27.785Z,12.07
2022-11-08T15:20:15.615Z,9.45
2022-11-08T15:23:01.080Z,9.75
2022-11-08T15:25:55.483Z,10.18
2022-11-08T15:28:40.863Z,10.15
2022-11-08T15:31:30.345Z,9.80
2022-11-08T15:34:21.455Z,14.70
2022-11-08T15:37:36.456Z,14.52
2022-11-08T15:40:30.145Z,13.45
2022-11-08T15:43:40.060Z,9.95
2022-11-08T15:46:35.626Z,13.45
2022-11-08T15:49:27.619Z,11.65
2022-11-08T15:52:13.688Z,10.35
2022-11-08T15:55:00.781Z,12.30
2022-11-08T15:57:47.714Z,15.43
2022-11-08T16:00:38.256Z,10.52
2022-11-08T16:03:24.542Z,14.98
2022-11-08T16:06:13.480Z,14.98
2022-11-08T16:08:58.713Z,9.40
2022-11-08T16:11:45.520Z,13.00
2022-11-08T16:14:31.276Z,13.18
2022-11-08T16:17:16.943Z,21.15
2022-11-08T16:20:03.181Z,11.75
2022-11-08T16:22:48.592Z,12.85
2022-11-08T16:25:37.393Z,19.02
2022-11-08T16:28:38.030Z,14.40
2022-11-08T16:31:23.618Z,12.25
2022-11-08T16:34:11.167Z,18.17
2022-11-08T16:36:56.523Z,19.33
2022-11-08T16:39:41.940Z,19.73
2022-11-08T16:42:27.547Z,15.82
2022-11-08T16:45:13.615Z,19.38
2022-11-08T16:47:58.955Z,16.52
2022-11-08T16:50:45.395Z,24.27
2022-11-08T16:53:30.915Z,26.10
2022-11-08T16:56:20.400Z,18.80
2022-11-08T16:59:06.355Z,16.58
2022-11-08T17:01:51.919Z,17.38
2022-11-08T17:04:37.875Z,20.40
2022-11-08T17:07:25.879Z,21.25
2022-11-08T17:10:20.293Z,21.88
2022-11-08T17:13:05.357Z,17.00
2022-11-08T17:15:51.305Z,18.90
2022-11-08T17:18:37.182Z,27.92
2022-11-08T17:21:44.814Z,25.17
2022-11-08T17:24:29.770Z,20.40
2022-11-08T17:27:19.600Z,28.02
2022-11-08T17:30:05.928Z,22.90
2022-11-08T17:32:51.491Z,22.33
2022-11-08T17:35:42.476Z,31.30
2022-11-08T17:38:29.277Z,27.20
2022-11-08T17:41:15.767Z,28.48
2022-11-08T17:44:01.538Z,29.05
2022-11-08T17:46:48.158Z,24.02
2022-11-08T17:49:33.431Z,21.77
2022-11-08T17:52:19.742Z,23.00
2022-11-08T17:55:05.937Z,33.40
2022-11-08T17:57:51.307Z,29.08
2022-11-08T18:00:36.769Z,25.08
2022-11-08T18:03:23.559Z,27.30
2022-11-08T18:06:11.939Z,30.13
2022-11-08T18:08:57.490Z,25.35
2022-11-08T18:11:47.725Z,25.00
2022-11-08T18:14:33.007Z,24.25
2022-11-08T18:17:18.519Z,31.58
2022-11-08T18:20:04.256Z,23.67
2022-11-08T18:22:49.388Z,32.47
2022-11-08T18:25:34.889Z,28.42
2022-11-08T18:28:20.354Z,26.20
2022-11-08T18:31:15.320Z,31.75
2022-11-08T18:34:00.906Z,26.05
2022-11-08T18:36:48.885Z,25.30
2022-11-08T18:39:34.246Z,25.40
2022-11-08T18:42:19.745Z,32.08
2022-11-08T18:45:05.914Z,26.15
2022-11-08T18:47:51.416Z,20.50
2022-11-08T18:50:37.550Z,33.17
2022-11-08T18:53:23.236Z,24.60
2022-11-08T18:56:09.691Z,32.95
2022-11-08T18:58:55.086Z,25.05
2022-11-08T19:01:41.038Z,24.50
2022-11-08T19:04:26.899Z,23.35
2022-11-08T19:07:12.569Z,24.17
2022-11-08T19:09:58.229Z,21.05
2022-11-08T19:12:43.770Z,20.88
2022-11-08T19:15:29.318Z,20.27
2022-11-08T19:18:14.921Z,16.05
2022-11-08T19:21:03.618Z,17.42
2022-11-08T19:23:50.143Z,24.50
2022-11-08T19:26:35.516Z,16.77
2022-11-08T19:29:21.156Z,19.73
2022-11-08T19:32:06.628Z,17.13
2022-11-08T19:34:52.205Z,19.15
2022-11-08T19:37:37.577Z,21.48
2022-11-08T19:40:26.722Z,16.98
2022-11-08T19:43:16.183Z,19.52
2022-11-08T19:46:08.123Z,18.35
2022-11-08T19:48:53.998Z,19.48
2022-11-08T19:51:39.646Z,23.27
2022-11-08T19:54:24.944Z,14.82
2022-11-08T19:57:10.566Z,19.55
2022-11-08T19:59:56.669Z,19.92
2022-11-08T20:02:42.493Z,19.00
2022-11-08T20:05:28.393Z,18.38
2022-11-08T20:08:14.052Z,18.98
2022-11-08T20:11:00.102Z,17.63
2022-11-08T20:13:46.243Z,20.27
2022-11-08T20:16:36.108Z,21.77
2022-11-08T20:19:22.483Z,16.42
2022-11-08T20:22:08.228Z,23.40
2022-11-08T20:24:53.758Z,18.17
2022-11-08T20:27:39.420Z,24.10
2022-11-08T20:30:24.774Z,24.08
2022-11-08T20:33:10.291Z,20.20
2022-11-08T20:35:56.222Z,18.67
2022-11-08T20:38:42.507Z,19.58
2022-11-08T20:41:29.150Z,27.67
2022-11-08T20:44:15.853Z,23.77
2022-11-08T20:47:06.261Z,19.67
2022-11-08T20:49:52.219Z,21.50
2022-11-08T20:52:37.885Z,24.17
2022-11-08T20:55:26.601Z,17.05
2022-11-08T20:58:12.095Z,30.98
2022-11-08T21:01:02.567Z,22.48
2022-11-08T21:03:48.542Z,18.52
2022-11-08T21:06:36.440Z,20.42
2022-11-08T21:09:49.285Z,21.02
2022-11-08T21:12:27.843Z,20.52
2022-11-08T21:15:13.532Z,13.77
2022-11-08T21:17:59.085Z,15.77
2022-11-08T21:20:44.745Z,19.40
2022-11-08T21:23:31.885Z,19.15
2022-11-08T21:26:19.306Z,19.70
2022-11-08T21:29:06.127Z,20.00
2022-11-08T21:31:51.477Z,18.38
2022-11-08T21:34:37.244Z,24.83
2022-11-08T21:37:23.102Z,23.02
2022-11-08T21:40:09.556Z,16.23
2022-11-08T21:42:56.171Z,22.90
2022-11-08T21:45:42.967Z,23.00
2022-11-08T21:48:28.225Z,22.40
2022-11-08T21:51:14.098Z,22.00
2022-11-08T21:54:04.101Z,22.10
2022-11-08T21:57:01.254Z,22.00
2022-11-08T21:59:46.998Z,16.50
2022-11-08T22:02:32.585Z,23.17
2022-11-08T22:05:18.653Z,24.30
2022-11-08T22:08:04.528Z,23.73
2022-11-08T22:10:50.058Z,24.98
2022-11-08T22:13:35.700Z,22.48
2022-11-08T22:16:21.130Z,23.05
2022-11-08T22:19:06.985Z,30.83
2022-11-08T22:21:52.816Z,23.45
2022-11-08T22:24:38.924Z,17.52
2022-11-08T22:27:24.546Z,21.75
2022-11-08T22:30:15.482Z,23.63
2022-11-08T22:33:02.067Z,24.23
2022-11-08T22:35:48.623Z,21.67
2022-11-08T22:38:34.248Z,20.67
2022-11-08T22:41:21.047Z,21.40
2022-11-08T22:44:11.739Z,25.75
2022-11-08T22:46:57.875Z,24.48
2022-11-08T22:49:45.122Z,23.30
2022-11-08T22:52:30.800Z,23.83
2022-11-08T22:55:16.450Z,17.52
2022-11-08T22:58:01.883Z,22.92
2022-11-08T23:00:49.332Z,27.00
2022-11-08T23:03:35.108Z,24.80
2022-11-08T23:06:20.802Z,23.33
2022-11-08T23:09:06.963Z,24.33
2022-11-08T23:12:10.799Z,21.02
2022-11-08T23:15:14.856Z,33.63
2022-11-08T23:18:00.705Z,26.77
2022-11-08T23:21:04.619Z,17.08
2022-11-08T23:24:08.598Z,19.67
2022-11-08T23:27:13.013Z,22.02
2022-11-08T23:30:16.857Z,24.05
2022-11-08T23:33:03.240Z,24.48
2022-11-08T23:36:11.586Z,29.75
2022-11-08T23:38:58.198Z,22.20
2022-11-08T23:42:02.164Z,32.15
2022-11-08T23:44:47.778Z,19.25
2022-11-08T23:47:33.288Z,18.52
2022-11-08T23:50:18.904Z,23.38
2022-11-08T23:53:04.629Z,21.05
2022-11-08T23:55:50.334Z,24.95
2022-11-08T23:58:35.974Z,28.55
